sensor_id;sensor_type;location;lat;lon;timestamp;pressure;altitude;pressure_sealevel;temperature;humidity
44441;BME280;30146;52.268;20.944;2023-01-30T00:02:00;100053.50;;;1.81;73.02
44441;BME280;30146;52.268;20.944;2023-01-30T00:04:31;100051.02;;;1.84;73.13
44441;BME280;30146;52.268;20.944;2023-01-30T00:07:02;100047.67;;;1.85;72.77
44441;BME280;30146;52.268;20.944;2023-01-30T00:09:33;100043.78;;;1.84;72.63
44441;BME280;30146;52.268;20.944;2023-01-30T00:12:05;100039.08;;;1.85;72.81
44441;BME280;30146;52.268;20.944;2023-01-30T00:14:36;100030.64;;;1.84;72.83
44441;BME280;30146;52.268;20.944;2023-01-30T00:17:07;100023.25;;;1.85;72.71
44441;BME280;30146;52.268;20.944;2023-01-30T00:19:38;100016.52;;;1.86;72.59
44441;BME280;30146;52.268;20.944;2023-01-30T00:22:09;100008.40;;;1.84;72.45
44441;BME280;30146;52.268;20.944;2023-01-30T00:24:40;100002.50;;;1.84;72.51
44441;BME280;30146;52.268;20.944;2023-01-30T00:27:11;100003.99;;;1.82;72.69
44441;BME280;30146;52.268;20.944;2023-01-30T00:29:42;99997.90;;;1.81;72.77
44441;BME280;30146;52.268;20.944;2023-01-30T00:32:31;99987.97;;;1.82;72.66
44441;BME280;30146;52.268;20.944;2023-01-30T00:35:02;99988.13;;;1.82;72.54
44441;BME280;30146;52.268;20.944;2023-01-30T00:37:35;99983.09;;;1.82;72.68
44441;BME280;30146;52.268;20.944;2023-01-30T00:40:08;99973.51;;;1.83;72.61
44441;BME280;30146;52.268;20.944;2023-01-30T00:42:39;99966.27;;;1.84;73.00
44441;BME280;30146;52.268;20.944;2023-01-30T00:45:28;99958.49;;;1.83;72.84
44441;BME280;30146;52.268;20.944;2023-01-30T00:48:13;99958.84;;;1.84;72.92
44441;BME280;30146;52.268;20.944;2023-01-30T00:50:45;99952.45;;;1.84;72.90
44441;BME280;30146;52.268;20.944;2023-01-30T00:53:16;99944.85;;;1.84;72.81
44441;BME280;30146;52.268;20.944;2023-01-30T00:55:49;99937.77;;;1.84;72.75
44441;BME280;30146;52.268;20.944;2023-01-30T00:58:20;99932.07;;;1.85;72.89
44441;BME280;30146;52.268;20.944;2023-01-30T01:00:51;99926.19;;;1.86;72.97
44441;BME280;30146;52.268;20.944;2023-01-30T01:03:25;99912.04;;;1.86;72.77
44441;BME280;30146;52.268;20.944;2023-01-30T01:05:56;99916.02;;;1.83;72.68
44441;BME280;30146;52.268;20.944;2023-01-30T01:08:27;99903.86;;;1.81;72.91
44441;BME280;30146;52.268;20.944;2023-01-30T01:10:58;99895.08;;;1.80;72.87
44441;BME280;30146;52.268;20.944;2023-01-30T01:13:28;99888.50;;;1.80;72.68
44441;BME280;30146;52.268;20.944;2023-01-30T01:16:00;99879.58;;;1.81;72.79
44441;BME280;30146;52.268;20.944;2023-01-30T01:18:31;99869.80;;;1.80;73.00
44441;BME280;30146;52.268;20.944;2023-01-30T01:21:02;99860.55;;;1.82;72.88
44441;BME280;30146;52.268;20.944;2023-01-30T01:23:33;99853.83;;;1.83;72.93
44441;BME280;30146;52.268;20.944;2023-01-30T01:26:04;99848.44;;;1.83;72.88
44441;BME280;30146;52.268;20.944;2023-01-30T01:28:36;99842.70;;;1.83;72.79
44441;BME280;30146;52.268;20.944;2023-01-30T01:31:12;99834.58;;;1.81;72.77
44441;BME280;30146;52.268;20.944;2023-01-30T01:33:44;99829.70;;;1.81;72.62
44441;BME280;30146;52.268;20.944;2023-01-30T01:36:15;99828.51;;;1.80;72.77
44441;BME280;30146;52.268;20.944;2023-01-30T01:39:06;99816.36;;;1.80;72.91
44441;BME280;30146;52.268;20.944;2023-01-30T01:41:37;99812.84;;;1.81;72.75
44441;BME280;30146;52.268;20.944;2023-01-30T01:44:10;99808.98;;;1.81;72.70
44441;BME280;30146;52.268;20.944;2023-01-30T01:46:45;99807.64;;;1.81;72.88
44441;BME280;30146;52.268;20.944;2023-01-30T01:49:21;99795.66;;;1.81;72.79
44441;BME280;30146;52.268;20.944;2023-01-30T01:51:57;99789.10;;;1.82;72.76
44441;BME280;30146;52.268;20.944;2023-01-30T01:54:34;99779.33;;;1.82;72.82
44441;BME280;30146;52.268;20.944;2023-01-30T01:57:09;99775.62;;;1.82;72.78
44441;BME280;30146;52.268;20.944;2023-01-30T01:59:44;99772.93;;;1.82;72.79
44441;BME280;30146;52.268;20.944;2023-01-30T02:02:19;99769.71;;;1.81;72.97
44441;BME280;30146;52.268;20.944;2023-01-30T02:04:54;99767.52;;;1.80;72.71
44441;BME280;30146;52.268;20.944;2023-01-30T02:07:38;99763.30;;;1.80;72.69
44441;BME280;30146;52.268;20.944;2023-01-30T02:10:10;99750.30;;;1.79;72.61
44441;BME280;30146;52.268;20.944;2023-01-30T02:12:44;99747.91;;;1.77;72.45
44441;BME280;30146;52.268;20.944;2023-01-30T02:15:15;99748.39;;;1.75;72.53
44441;BME280;30146;52.268;20.944;2023-01-30T02:17:47;99742.82;;;1.74;72.51
44441;BME280;30146;52.268;20.944;2023-01-30T02:20:25;99735.54;;;1.72;72.53
44441;BME280;30146;52.268;20.944;2023-01-30T02:23:34;99730.67;;;1.74;72.59
44441;BME280;30146;52.268;20.944;2023-01-30T02:29:42;99722.48;;;1.78;72.53
44441;BME280;30146;52.268;20.944;2023-01-30T02:32:24;99728.03;;;1.77;72.46
44441;BME280;30146;52.268;20.944;2023-01-30T02:35:05;99725.66;;;1.78;72.47
44441;BME280;30146;52.268;20.944;2023-01-30T02:37:48;99724.66;;;1.78;72.42
44441;BME280;30146;52.268;20.944;2023-01-30T02:40:35;99718.80;;;1.80;72.55
44441;BME280;30146;52.268;20.944;2023-01-30T02:43:14;99708.73;;;1.83;72.45
44441;BME280;30146;52.268;20.944;2023-01-30T02:45:52;99704.02;;;1.83;72.66
44441;BME280;30146;52.268;20.944;2023-01-30T02:48:26;99704.04;;;1.84;72.33
44441;BME280;30146;52.268;20.944;2023-01-30T02:51:00;99693.42;;;1.84;72.50
44441;BME280;30146;52.268;20.944;2023-01-30T02:53:34;99688.16;;;1.82;72.28
44441;BME280;30146;52.268;20.944;2023-01-30T02:56:06;99685.11;;;1.80;72.07
44441;BME280;30146;52.268;20.944;2023-01-30T02:58:41;99678.65;;;1.78;72.03
44441;BME280;30146;52.268;20.944;2023-01-30T03:01:27;99670.55;;;1.77;72.15
44441;BME280;30146;52.268;20.944;2023-01-30T03:04:26;99668.18;;;1.75;71.95
44441;BME280;30146;52.268;20.944;2023-01-30T03:07:14;99664.60;;;1.73;71.79
44441;BME280;30146;52.268;20.944;2023-01-30T03:09:53;99655.98;;;1.71;71.76
44441;BME280;30146;52.268;20.944;2023-01-30T03:12:37;99652.26;;;1.69;71.70
44441;BME280;30146;52.268;20.944;2023-01-30T03:15:15;99649.88;;;1.68;71.60
44441;BME280;30146;52.268;20.944;2023-01-30T03:17:48;99641.44;;;1.67;71.60
44441;BME280;30146;52.268;20.944;2023-01-30T03:20:20;99629.10;;;1.65;71.62
44441;BME280;30146;52.268;20.944;2023-01-30T03:22:51;99617.30;;;1.63;71.42
44441;BME280;30146;52.268;20.944;2023-01-30T03:25:25;99606.15;;;1.62;71.27
44441;BME280;30146;52.268;20.944;2023-01-30T03:27:57;99591.77;;;1.58;71.59
44441;BME280;30146;52.268;20.944;2023-01-30T03:30:28;99582.15;;;1.57;71.71
44441;BME280;30146;52.268;20.944;2023-01-30T03:33:06;99581.79;;;1.56;71.50
44441;BME280;30146;52.268;20.944;2023-01-30T03:35:38;99578.23;;;1.53;71.55
44441;BME280;30146;52.268;20.944;2023-01-30T03:38:11;99569.11;;;1.51;71.57
44441;BME280;30146;52.268;20.944;2023-01-30T03:40:42;99561.13;;;1.48;71.28
44441;BME280;30146;52.268;20.944;2023-01-30T03:43:13;99559.70;;;1.42;71.29
44441;BME280;30146;52.268;20.944;2023-01-30T03:45:44;99547.85;;;1.38;71.83
44441;BME280;30146;52.268;20.944;2023-01-30T03:48:15;99550.64;;;1.32;71.52
44441;BME280;30146;52.268;20.944;2023-01-30T03:50:46;99550.41;;;1.29;71.90
44441;BME280;30146;52.268;20.944;2023-01-30T03:53:18;99549.20;;;1.27;71.91
44441;BME280;30146;52.268;20.944;2023-01-30T03:55:49;99543.95;;;1.24;71.93
44441;BME280;30146;52.268;20.944;2023-01-30T03:58:25;99536.27;;;1.17;71.81
44441;BME280;30146;52.268;20.944;2023-01-30T04:00:57;99538.08;;;1.14;71.99
44441;BME280;30146;52.268;20.944;2023-01-30T04:03:28;99533.85;;;1.13;72.21
44441;BME280;30146;52.268;20.944;2023-01-30T04:06:00;99526.41;;;1.11;72.24
44441;BME280;30146;52.268;20.944;2023-01-30T04:08:32;99517.62;;;1.09;72.11
44441;BME280;30146;52.268;20.944;2023-01-30T04:11:03;99512.06;;;1.09;72.35
44441;BME280;30146;52.268;20.944;2023-01-30T04:13:34;99507.50;;;1.07;72.24
44441;BME280;30146;52.268;20.944;2023-01-30T04:16:23;99500.59;;;1.06;72.32
44441;BME280;30146;52.268;20.944;2023-01-30T04:19:20;99498.04;;;1.05;72.32
44441;BME280;30146;52.268;20.944;2023-01-30T04:21:51;99492.46;;;1.03;72.43
44441;BME280;30146;52.268;20.944;2023-01-30T04:24:23;99475.58;;;0.99;72.02
44441;BME280;30146;52.268;20.944;2023-01-30T04:26:54;99471.84;;;0.98;72.14
44441;BME280;30146;52.268;20.944;2023-01-30T04:29:26;99463.21;;;0.94;72.30
44441;BME280;30146;52.268;20.944;2023-01-30T04:31:58;99451.54;;;0.90;72.21
44441;BME280;30146;52.268;20.944;2023-01-30T04:34:34;99450.16;;;0.87;72.03
44441;BME280;30146;52.268;20.944;2023-01-30T04:37:05;99447.75;;;0.84;72.12
44441;BME280;30146;52.268;20.944;2023-01-30T04:39:36;99449.57;;;0.83;72.16
44441;BME280;30146;52.268;20.944;2023-01-30T04:42:07;99437.30;;;0.83;72.31
44441;BME280;30146;52.268;20.944;2023-01-30T04:44:44;99427.56;;;0.85;72.70
44441;BME280;30146;52.268;20.944;2023-01-30T04:47:20;99419.52;;;0.86;72.58
44441;BME280;30146;52.268;20.944;2023-01-30T04:49:51;99414.48;;;0.87;72.29
44441;BME280;30146;52.268;20.944;2023-01-30T04:52:22;99412.80;;;0.87;72.24
44441;BME280;30146;52.268;20.944;2023-01-30T04:54:54;99411.98;;;0.89;72.27
44441;BME280;30146;52.268;20.944;2023-01-30T04:57:25;99414.52;;;0.91;72.19
44441;BME280;30146;52.268;20.944;2023-01-30T04:59:56;99412.53;;;0.91;72.03
44441;BME280;30146;52.268;20.944;2023-01-30T05:02:27;99409.52;;;0.93;72.15
44441;BME280;30146;52.268;20.944;2023-01-30T05:04:58;99410.88;;;0.94;72.19
44441;BME280;30146;52.268;20.944;2023-01-30T05:07:29;99399.30;;;0.96;72.25
44441;BME280;30146;52.268;20.944;2023-01-30T05:10:00;99392.23;;;0.97;72.20
44441;BME280;30146;52.268;20.944;2023-01-30T05:12:32;99384.16;;;0.97;72.03
44441;BME280;30146;52.268;20.944;2023-01-30T05:15:04;99381.12;;;0.95;71.84
44441;BME280;30146;52.268;20.944;2023-01-30T05:17:35;99372.04;;;0.95;71.91
44441;BME280;30146;52.268;20.944;2023-01-30T05:20:10;99362.77;;;0.95;71.84
44441;BME280;30146;52.268;20.944;2023-01-30T05:22:40;99349.14;;;0.95;71.76
44441;BME280;30146;52.268;20.944;2023-01-30T05:25:11;99344.42;;;0.94;71.78
44441;BME280;30146;52.268;20.944;2023-01-30T05:27:42;99342.90;;;0.93;72.06
44441;BME280;30146;52.268;20.944;2023-01-30T05:30:14;99338.16;;;0.93;71.77
44441;BME280;30146;52.268;20.944;2023-01-30T05:32:44;99331.45;;;0.92;71.68
44441;BME280;30146;52.268;20.944;2023-01-30T05:35:16;99324.51;;;0.90;71.63
44441;BME280;30146;52.268;20.944;2023-01-30T05:37:51;99318.73;;;0.86;71.69
44441;BME280;30146;52.268;20.944;2023-01-30T05:40:22;99320.22;;;0.84;71.70
44441;BME280;30146;52.268;20.944;2023-01-30T05:42:53;99325.23;;;0.82;71.68
44441;BME280;30146;52.268;20.944;2023-01-30T05:45:24;99318.01;;;0.82;71.88
44441;BME280;30146;52.268;20.944;2023-01-30T05:47:55;99311.98;;;0.83;71.88
44441;BME280;30146;52.268;20.944;2023-01-30T05:50:30;99307.61;;;0.85;71.74
44441;BME280;30146;52.268;20.944;2023-01-30T05:53:01;99299.55;;;0.86;71.85
44441;BME280;30146;52.268;20.944;2023-01-30T05:55:32;99297.08;;;0.90;71.98
44441;BME280;30146;52.268;20.944;2023-01-30T05:58:03;99298.64;;;0.93;71.98
44441;BME280;30146;52.268;20.944;2023-01-30T06:00:34;99294.44;;;0.95;71.78
44441;BME280;30146;52.268;20.944;2023-01-30T06:03:05;99288.05;;;0.94;71.79
44441;BME280;30146;52.268;20.944;2023-01-30T06:05:39;99289.56;;;0.94;71.66
44441;BME280;30146;52.268;20.944;2023-01-30T06:08:10;99280.48;;;0.95;71.52
44441;BME280;30146;52.268;20.944;2023-01-30T06:10:41;99271.23;;;0.95;71.85
44441;BME280;30146;52.268;20.944;2023-01-30T06:13:12;99260.64;;;0.96;71.70
44441;BME280;30146;52.268;20.944;2023-01-30T06:15:43;99259.80;;;0.95;71.40
44441;BME280;30146;52.268;20.944;2023-01-30T06:18:14;99246.66;;;0.93;71.42
44441;BME280;30146;52.268;20.944;2023-01-30T06:20:49;99246.47;;;0.93;71.46
44441;BME280;30146;52.268;20.944;2023-01-30T06:23:21;99252.54;;;0.92;71.27
44441;BME280;30146;52.268;20.944;2023-01-30T06:25:53;99258.41;;;0.92;71.56
44441;BME280;30146;52.268;20.944;2023-01-30T06:28:26;99255.91;;;0.93;71.17
44441;BME280;30146;52.268;20.944;2023-01-30T06:30:57;99256.23;;;0.93;71.24
44441;BME280;30146;52.268;20.944;2023-01-30T06:33:28;99253.05;;;0.93;71.45
44441;BME280;30146;52.268;20.944;2023-01-30T06:35:59;99249.35;;;0.94;71.29
44441;BME280;30146;52.268;20.944;2023-01-30T06:38:30;99244.64;;;0.94;71.16
44441;BME280;30146;52.268;20.944;2023-01-30T06:41:01;99241.79;;;0.95;71.24
44441;BME280;30146;52.268;20.944;2023-01-30T06:43:32;99238.77;;;0.95;71.07
44441;BME280;30146;52.268;20.944;2023-01-30T06:46:03;99230.02;;;0.97;71.20
44441;BME280;30146;52.268;20.944;2023-01-30T06:48:34;99228.02;;;0.99;71.27
44441;BME280;30146;52.268;20.944;2023-01-30T06:51:05;99220.48;;;0.99;70.90
44441;BME280;30146;52.268;20.944;2023-01-30T06:53:37;99220.98;;;0.99;70.87
44441;BME280;30146;52.268;20.944;2023-01-30T06:56:08;99222.48;;;1.00;70.78
44441;BME280;30146;52.268;20.944;2023-01-30T06:58:39;99215.09;;;0.99;70.65
44441;BME280;30146;52.268;20.944;2023-01-30T07:01:10;99217.59;;;0.99;70.66
44441;BME280;30146;52.268;20.944;2023-01-30T07:03:41;99219.95;;;0.99;70.67
44441;BME280;30146;52.268;20.944;2023-01-30T07:06:12;99209.69;;;0.98;70.46
44441;BME280;30146;52.268;20.944;2023-01-30T07:08:43;99206.83;;;0.99;70.65
44441;BME280;30146;52.268;20.944;2023-01-30T07:11:14;99201.59;;;0.97;70.39
44441;BME280;30146;52.268;20.944;2023-01-30T07:13:45;99202.41;;;0.95;70.17
44441;BME280;30146;52.268;20.944;2023-01-30T07:16:16;99190.80;;;0.94;70.27
44441;BME280;30146;52.268;20.944;2023-01-30T07:18:47;99188.12;;;0.95;70.26
44441;BME280;30146;52.268;20.944;2023-01-30T07:21:18;99182.58;;;0.97;70.28
44441;BME280;30146;52.268;20.944;2023-01-30T07:23:49;99183.23;;;0.96;70.17
44441;BME280;30146;52.268;20.944;2023-01-30T07:26:21;99175.84;;;0.96;70.10
44441;BME280;30146;52.268;20.944;2023-01-30T07:28:52;99171.61;;;0.94;70.16
44441;BME280;30146;52.268;20.944;2023-01-30T07:31:23;99169.92;;;0.93;70.40
44441;BME280;30146;52.268;20.944;2023-01-30T07:33:54;99159.65;;;0.92;70.26
44441;BME280;30146;52.268;20.944;2023-01-30T07:36:25;99159.48;;;0.91;70.32
44441;BME280;30146;52.268;20.944;2023-01-30T07:38:56;99165.02;;;0.90;70.45
44441;BME280;30146;52.268;20.944;2023-01-30T07:41:27;99162.79;;;0.88;70.42
44441;BME280;30146;52.268;20.944;2023-01-30T07:43:58;99162.60;;;0.85;70.61
44441;BME280;30146;52.268;20.944;2023-01-30T07:46:29;99152.14;;;0.82;70.92
44441;BME280;30146;52.268;20.944;2023-01-30T07:49:05;99144.34;;;0.77;70.46
44441;BME280;30146;52.268;20.944;2023-01-30T07:51:40;99140.95;;;0.75;70.50
44441;BME280;30146;52.268;20.944;2023-01-30T07:54:11;99140.11;;;0.74;70.71
44441;BME280;30146;52.268;20.944;2023-01-30T07:56:42;99134.37;;;0.71;70.88
44441;BME280;30146;52.268;20.944;2023-01-30T07:59:13;99133.17;;;0.70;70.89
44441;BME280;30146;52.268;20.944;2023-01-30T08:01:44;99132.16;;;0.69;71.06
44441;BME280;30146;52.268;20.944;2023-01-30T08:04:15;99133.47;;;0.68;71.11
44441;BME280;30146;52.268;20.944;2023-01-30T08:06:47;99127.92;;;0.66;70.97
44441;BME280;30146;52.268;20.944;2023-01-30T08:09:18;99124.85;;;0.63;71.26
44441;BME280;30146;52.268;20.944;2023-01-30T08:11:49;99123.48;;;0.61;71.16
44441;BME280;30146;52.268;20.944;2023-01-30T08:14:20;99119.08;;;0.58;71.23
44441;BME280;30146;52.268;20.944;2023-01-30T08:16:51;99115.52;;;0.54;71.39
44441;BME280;30146;52.268;20.944;2023-01-30T08:19:22;99110.44;;;0.51;71.36
44441;BME280;30146;52.268;20.944;2023-01-30T08:21:53;99110.23;;;0.49;71.38
44441;BME280;30146;52.268;20.944;2023-01-30T08:24:24;99104.88;;;0.50;71.61
44441;BME280;30146;52.268;20.944;2023-01-30T08:26:55;99101.35;;;0.51;71.75
44441;BME280;30146;52.268;20.944;2023-01-30T08:29:26;99108.75;;;0.51;71.79
44441;BME280;30146;52.268;20.944;2023-01-30T08:31:59;99097.11;;;0.47;71.81
44441;BME280;30146;52.268;20.944;2023-01-30T08:34:30;99096.59;;;0.47;71.64
44441;BME280;30146;52.268;20.944;2023-01-30T08:37:01;99093.20;;;0.43;71.77
44441;BME280;30146;52.268;20.944;2023-01-30T08:39:32;99092.83;;;0.40;71.90
44441;BME280;30146;52.268;20.944;2023-01-30T08:42:06;99094.00;;;0.39;71.95
44441;BME280;30146;52.268;20.944;2023-01-30T08:44:36;99090.44;;;0.38;72.09
44441;BME280;30146;52.268;20.944;2023-01-30T08:47:08;99086.58;;;0.37;72.09
44441;BME280;30146;52.268;20.944;2023-01-30T08:49:39;99083.55;;;0.36;72.22
44441;BME280;30146;52.268;20.944;2023-01-30T08:52:10;99074.27;;;0.35;72.14
44441;BME280;30146;52.268;20.944;2023-01-30T08:54:41;99076.80;;;0.34;72.32
44441;BME280;30146;52.268;20.944;2023-01-30T08:57:12;99068.73;;;0.36;72.32
44441;BME280;30146;52.268;20.944;2023-01-30T08:59:43;99065.55;;;0.36;72.44
44441;BME280;30146;52.268;20.944;2023-01-30T09:02:14;99062.21;;;0.37;72.52
44441;BME280;30146;52.268;20.944;2023-01-30T09:04:45;99059.70;;;0.40;72.50
44441;BME280;30146;52.268;20.944;2023-01-30T09:07:16;99059.52;;;0.40;72.56
44441;BME280;30146;52.268;20.944;2023-01-30T09:09:47;99052.83;;;0.41;72.56
44441;BME280;30146;52.268;20.944;2023-01-30T09:12:18;99048.13;;;0.42;72.60
44441;BME280;30146;52.268;20.944;2023-01-30T09:14:50;99040.77;;;0.46;72.76
44441;BME280;30146;52.268;20.944;2023-01-30T09:17:22;99030.04;;;0.48;72.77
44441;BME280;30146;52.268;20.944;2023-01-30T09:20:05;99033.44;;;0.52;72.89
44441;BME280;30146;52.268;20.944;2023-01-30T09:22:37;99026.20;;;0.52;72.67
44441;BME280;30146;52.268;20.944;2023-01-30T09:25:11;99021.16;;;0.52;72.71
44441;BME280;30146;52.268;20.944;2023-01-30T09:27:42;99011.26;;;0.53;72.60
44441;BME280;30146;52.268;20.944;2023-01-30T09:30:15;99015.11;;;0.53;72.87
44441;BME280;30146;52.268;20.944;2023-01-30T09:32:46;99004.35;;;0.52;72.58
44441;BME280;30146;52.268;20.944;2023-01-30T09:35:18;99014.23;;;0.48;72.72
44441;BME280;30146;52.268;20.944;2023-01-30T09:37:51;99005.98;;;0.47;72.84
44441;BME280;30146;52.268;20.944;2023-01-30T09:40:25;99001.94;;;0.46;72.59
44441;BME280;30146;52.268;20.944;2023-01-30T09:43:12;98995.89;;;0.47;72.74
44441;BME280;30146;52.268;20.944;2023-01-30T09:45:57;98995.40;;;0.49;73.02
44441;BME280;30146;52.268;20.944;2023-01-30T09:48:47;98986.69;;;0.50;73.15
44441;BME280;30146;52.268;20.944;2023-01-30T09:51:38;98981.65;;;0.52;72.95
44441;BME280;30146;52.268;20.944;2023-01-30T09:54:20;98972.76;;;0.53;72.93
44441;BME280;30146;52.268;20.944;2023-01-30T09:57:00;98967.55;;;0.55;73.03
44441;BME280;30146;52.268;20.944;2023-01-30T10:00:08;98960.02;;;0.58;73.22
44441;BME280;30146;52.268;20.944;2023-01-30T10:02:50;98953.63;;;0.59;73.24
44441;BME280;30146;52.268;20.944;2023-01-30T10:05:29;98955.36;;;0.65;73.44
44441;BME280;30146;52.268;20.944;2023-01-30T10:08:23;98955.22;;;0.68;73.29
44441;BME280;30146;52.268;20.944;2023-01-30T10:11:03;98950.87;;;0.71;73.26
44441;BME280;30146;52.268;20.944;2023-01-30T10:16:43;98933.42;;;0.78;73.45
44441;BME280;30146;52.268;20.944;2023-01-30T10:22:32;98919.73;;;0.90;73.60
44441;BME280;30146;52.268;20.944;2023-01-30T10:25:16;98914.88;;;0.94;73.63
44441;BME280;30146;52.268;20.944;2023-01-30T10:27:52;98914.55;;;0.97;73.64
44441;BME280;30146;52.268;20.944;2023-01-30T10:30:25;98915.08;;;0.99;73.54
44441;BME280;30146;52.268;20.944;2023-01-30T10:33:00;98903.45;;;0.97;73.17
44441;BME280;30146;52.268;20.944;2023-01-30T10:35:35;98901.41;;;0.95;73.54
44441;BME280;30146;52.268;20.944;2023-01-30T10:38:14;98899.57;;;0.96;73.32
44441;BME280;30146;52.268;20.944;2023-01-30T10:40:56;98899.42;;;1.00;73.78
44441;BME280;30146;52.268;20.944;2023-01-30T10:43:33;98891.88;;;1.04;73.87
44441;BME280;30146;52.268;20.944;2023-01-30T10:46:18;98882.64;;;1.06;73.73
44441;BME280;30146;52.268;20.944;2023-01-30T10:48:59;98879.10;;;1.08;73.59
44441;BME280;30146;52.268;20.944;2023-01-30T10:51:43;98881.29;;;1.07;73.71
44441;BME280;30146;52.268;20.944;2023-01-30T10:54:24;98880.61;;;1.06;73.65
44441;BME280;30146;52.268;20.944;2023-01-30T10:57:04;98877.92;;;1.07;73.96
44441;BME280;30146;52.268;20.944;2023-01-30T10:59:49;98879.10;;;1.08;73.88
44441;BME280;30146;52.268;20.944;2023-01-30T11:02:33;98875.09;;;1.11;73.98
44441;BME280;30146;52.268;20.944;2023-01-30T11:05:15;98873.94;;;1.16;74.13
44441;BME280;30146;52.268;20.944;2023-01-30T11:07:48;98864.86;;;1.20;74.02
44441;BME280;30146;52.268;20.944;2023-01-30T11:10:22;98865.37;;;1.23;74.24
44441;BME280;30146;52.268;20.944;2023-01-30T11:12:56;98863.21;;;1.27;74.23
44441;BME280;30146;52.268;20.944;2023-01-30T11:15:41;98859.70;;;1.30;74.12
44441;BME280;30146;52.268;20.944;2023-01-30T11:18:14;98854.47;;;1.35;74.00
44441;BME280;30146;52.268;20.944;2023-01-30T11:21:09;98851.96;;;1.38;74.12
44441;BME280;30146;52.268;20.944;2023-01-30T11:23:43;98848.11;;;1.40;74.08
44441;BME280;30146;52.268;20.944;2023-01-30T11:26:20;98844.58;;;1.41;74.10
44441;BME280;30146;52.268;20.944;2023-01-30T11:28:58;98842.55;;;1.42;73.97
44441;BME280;30146;52.268;20.944;2023-01-30T11:31:36;98838.19;;;1.45;74.16
44441;BME280;30146;52.268;20.944;2023-01-30T11:34:15;98829.61;;;1.50;74.23
44441;BME280;30146;52.268;20.944;2023-01-30T11:36:47;98825.58;;;1.52;73.93
44441;BME280;30146;52.268;20.944;2023-01-30T11:39:26;98825.41;;;1.55;73.86
44441;BME280;30146;52.268;20.944;2023-01-30T11:42:02;98821.21;;;1.60;74.28
44441;BME280;30146;52.268;20.944;2023-01-30T11:44:37;98812.98;;;1.65;74.19
44441;BME280;30146;52.268;20.944;2023-01-30T11:47:20;98816.02;;;1.69;74.36
44441;BME280;30146;52.268;20.944;2023-01-30T11:49:57;98814.34;;;1.73;74.05
44441;BME280;30146;52.268;20.944;2023-01-30T11:52:51;98811.14;;;1.76;74.11
44441;BME280;30146;52.268;20.944;2023-01-30T11:55:22;98810.30;;;1.78;74.09
44441;BME280;30146;52.268;20.944;2023-01-30T11:57:56;98802.71;;;1.78;73.88
44441;BME280;30146;52.268;20.944;2023-01-30T12:00:38;98800.02;;;1.80;74.06
44441;BME280;30146;52.268;20.944;2023-01-30T12:03:13;98802.55;;;1.82;74.04
44441;BME280;30146;52.268;20.944;2023-01-30T12:05:47;98797.00;;;1.82;74.12
44441;BME280;30146;52.268;20.944;2023-01-30T12:08:26;98798.68;;;1.82;74.16
44441;BME280;30146;52.268;20.944;2023-01-30T12:11:27;98797.17;;;1.82;74.11
44441;BME280;30146;52.268;20.944;2023-01-30T12:14:13;98795.98;;;1.81;73.82
44441;BME280;30146;52.268;20.944;2023-01-30T12:16:57;98791.42;;;1.77;73.98
44441;BME280;30146;52.268;20.944;2023-01-30T12:19:42;98793.12;;;1.74;73.82
44441;BME280;30146;52.268;20.944;2023-01-30T12:22:23;98786.04;;;1.72;73.98
44441;BME280;30146;52.268;20.944;2023-01-30T12:25:00;98779.65;;;1.70;74.15
44441;BME280;30146;52.268;20.944;2023-01-30T12:27:46;98783.00;;;1.71;74.35
44441;BME280;30146;52.268;20.944;2023-01-30T12:30:25;98793.27;;;1.72;74.35
44441;BME280;30146;52.268;20.944;2023-01-30T12:33:02;98791.94;;;1.72;74.01
44441;BME280;30146;52.268;20.944;2023-01-30T12:35:44;98786.38;;;1.73;74.05
44441;BME280;30146;52.268;20.944;2023-01-30T12:38:29;98782.00;;;1.76;74.47
44441;BME280;30146;52.268;20.944;2023-01-30T12:41:17;98781.49;;;1.79;74.41
44441;BME280;30146;52.268;20.944;2023-01-30T12:44:05;98785.55;;;1.81;74.47
44441;BME280;30146;52.268;20.944;2023-01-30T12:46:51;98784.19;;;1.83;74.47
44441;BME280;30146;52.268;20.944;2023-01-30T12:49:39;98779.13;;;1.81;74.48
44441;BME280;30146;52.268;20.944;2023-01-30T12:52:32;98775.10;;;1.82;74.45
44441;BME280;30146;52.268;20.944;2023-01-30T12:55:23;98774.77;;;1.82;74.37
44441;BME280;30146;52.268;20.944;2023-01-30T12:57:59;98775.60;;;1.83;74.05
44441;BME280;30146;52.268;20.944;2023-01-30T13:00:46;98771.90;;;1.82;74.24
44441;BME280;30146;52.268;20.944;2023-01-30T13:03:28;98776.45;;;1.83;74.29
44441;BME280;30146;52.268;20.944;2023-01-30T13:06:09;98769.71;;;1.85;74.51
44441;BME280;30146;52.268;20.944;2023-01-30T13:08:57;98763.98;;;1.87;74.63
44441;BME280;30146;52.268;20.944;2023-01-30T13:11:47;98765.32;;;1.91;74.57
44441;BME280;30146;52.268;20.944;2023-01-30T13:14:27;98768.86;;;1.95;74.44
44441;BME280;30146;52.268;20.944;2023-01-30T13:17:19;98772.41;;;1.99;74.60
44441;BME280;30146;52.268;20.944;2023-01-30T13:19:58;98771.56;;;2.03;74.72
44441;BME280;30146;52.268;20.944;2023-01-30T13:22:38;98772.23;;;2.06;74.66
44441;BME280;30146;52.268;20.944;2023-01-30T13:25:21;98771.05;;;2.08;74.64
44441;BME280;30146;52.268;20.944;2023-01-30T13:27:58;98772.07;;;2.08;74.61
44441;BME280;30146;52.268;20.944;2023-01-30T13:30:34;98767.50;;;2.09;74.53
44441;BME280;30146;52.268;20.944;2023-01-30T13:33:10;98764.98;;;2.10;74.68
44441;BME280;30146;52.268;20.944;2023-01-30T13:35:46;98768.35;;;2.10;74.62
44441;BME280;30146;52.268;20.944;2023-01-30T13:38:21;98759.58;;;2.08;74.45
44441;BME280;30146;52.268;20.944;2023-01-30T13:40:56;98761.45;;;2.08;74.72
44441;BME280;30146;52.268;20.944;2023-01-30T13:43:31;98761.44;;;2.08;74.35
44441;BME280;30146;52.268;20.944;2023-01-30T13:46:08;98765.31;;;2.07;74.52
44441;BME280;30146;52.268;20.944;2023-01-30T13:48:48;98757.89;;;2.09;74.79
44441;BME280;30146;52.268;20.944;2023-01-30T13:51:30;98755.03;;;2.13;74.58
44441;BME280;30146;52.268;20.944;2023-01-30T13:54:08;98755.36;;;2.15;74.70